sensor_id;sensor_type;location;lat;lon;timestamp;temperature;humidity
41220;DHT22;26951;47.338;9.196;2023-05-10T00:00:23;12.10;84.10
41220;DHT22;26951;47.338;9.196;2023-05-10T00:03:07;12.10;85.40
41220;DHT22;26951;47.338;9.196;2023-05-10T00:05:51;12.00;84.70
41220;DHT22;26951;47.338;9.196;2023-05-10T00:08:35;12.00;84.90
41220;DHT22;26951;47.338;9.196;2023-05-10T00:11:19;12.10;87.20
41220;DHT22;26951;47.338;9.196;2023-05-10T00:14:03;12.00;86.90
41220;DHT22;26951;47.338;9.196;2023-05-10T00:16:47;12.00;84.10
41220;DHT22;26951;47.338;9.196;2023-05-10T00:19:32;11.90;82.00
41220;DHT22;26951;47.338;9.196;2023-05-10T00:22:16;11.90;82.40
41220;DHT22;26951;47.338;9.196;2023-05-10T00:25:00;11.90;82.70
41220;DHT22;26951;47.338;9.196;2023-05-10T00:27:44;11.90;81.90
41220;DHT22;26951;47.338;9.196;2023-05-10T00:30:28;11.80;79.30
41220;DHT22;26951;47.338;9.196;2023-05-10T00:33:12;11.70;78.80
41220;DHT22;26951;47.338;9.196;2023-05-10T00:35:56;11.60;77.50
41220;DHT22;26951;47.338;9.196;2023-05-10T00:38:40;11.50;77.80
41220;DHT22;26951;47.338;9.196;2023-05-10T00:41:25;11.40;76.00
41220;DHT22;26951;47.338;9.196;2023-05-10T00:44:09;11.30;77.70
41220;DHT22;26951;47.338;9.196;2023-05-10T00:46:53;11.30;77.70
41220;DHT22;26951;47.338;9.196;2023-05-10T00:49:37;11.30;76.10
41220;DHT22;26951;47.338;9.196;2023-05-10T00:52:21;11.20;76.80
41220;DHT22;26951;47.338;9.196;2023-05-10T00:55:07;11.20;78.20
41220;DHT22;26951;47.338;9.196;2023-05-10T00:57:53;11.20;78.90
41220;DHT22;26951;47.338;9.196;2023-05-10T01:04:33;11.10;78.00
41220;DHT22;26951;47.338;9.196;2023-05-10T01:07:19;11.10;78.30
41220;DHT22;26951;47.338;9.196;2023-05-10T01:10:04;11.00;78.40
41220;DHT22;26951;47.338;9.196;2023-05-10T01:12:49;11.10;79.30
41220;DHT22;26951;47.338;9.196;2023-05-10T01:15:33;11.10;80.00
41220;DHT22;26951;47.338;9.196;2023-05-10T01:18:20;11.00;79.60
41220;DHT22;26951;47.338;9.196;2023-05-10T01:21:14;11.00;80.70
41220;DHT22;26951;47.338;9.196;2023-05-10T01:24:36;11.00;81.30
41220;DHT22;26951;47.338;9.196;2023-05-10T01:34:12;11.00;81.50
41220;DHT22;26951;47.338;9.196;2023-05-10T01:37:07;11.10;80.90
41220;DHT22;26951;47.338;9.196;2023-05-10T01:40:00;11.10;80.60
41220;DHT22;26951;47.338;9.196;2023-05-10T01:42:53;11.20;80.70
41220;DHT22;26951;47.338;9.196;2023-05-10T01:45:45;11.20;80.80
41220;DHT22;26951;47.338;9.196;2023-05-10T01:48:31;11.20;80.30
41220;DHT22;26951;47.338;9.196;2023-05-10T01:51:21;11.20;79.70
41220;DHT22;26951;47.338;9.196;2023-05-10T01:54:08;11.20;79.60
41220;DHT22;26951;47.338;9.196;2023-05-10T01:56:57;11.20;78.50
41220;DHT22;26951;47.338;9.196;2023-05-10T01:59:45;11.20;79.40
41220;DHT22;26951;47.338;9.196;2023-05-10T02:02:37;11.30;79.80
41220;DHT22;26951;47.338;9.196;2023-05-10T02:05:22;11.30;79.90
41220;DHT22;26951;47.338;9.196;2023-05-10T02:08:07;11.30;80.30
41220;DHT22;26951;47.338;9.196;2023-05-10T02:10:54;11.20;78.00
41220;DHT22;26951;47.338;9.196;2023-05-10T02:13:39;11.20;76.60
41220;DHT22;26951;47.338;9.196;2023-05-10T02:16:26;11.10;76.50
41220;DHT22;26951;47.338;9.196;2023-05-10T02:19:11;11.10;77.80
41220;DHT22;26951;47.338;9.196;2023-05-10T02:21:58;11.10;79.80
41220;DHT22;26951;47.338;9.196;2023-05-10T02:24:42;11.10;79.60
41220;DHT22;26951;47.338;9.196;2023-05-10T02:27:28;11.10;79.60
41220;DHT22;26951;47.338;9.196;2023-05-10T02:30:13;11.10;79.20
41220;DHT22;26951;47.338;9.196;2023-05-10T02:32:57;11.10;79.60
41220;DHT22;26951;47.338;9.196;2023-05-10T02:35:43;11.10;79.10
41220;DHT22;26951;47.338;9.196;2023-05-10T02:38:28;11.10;78.90
41220;DHT22;26951;47.338;9.196;2023-05-10T02:41:14;11.10;79.10
41220;DHT22;26951;47.338;9.196;2023-05-10T02:44:01;11.00;78.80
41220;DHT22;26951;47.338;9.196;2023-05-10T02:46:46;11.10;79.50
41220;DHT22;26951;47.338;9.196;2023-05-10T02:49:31;11.10;79.30
41220;DHT22;26951;47.338;9.196;2023-05-10T02:52:25;11.10;79.60
41220;DHT22;26951;47.338;9.196;2023-05-10T02:55:14;11.10;80.10
41220;DHT22;26951;47.338;9.196;2023-05-10T02:58:01;11.10;79.80
41220;DHT22;26951;47.338;9.196;2023-05-10T03:00:45;11.10;79.40
41220;DHT22;26951;47.338;9.196;2023-05-10T03:03:30;11.10;79.70
41220;DHT22;26951;47.338;9.196;2023-05-10T03:06:14;11.10;79.40
41220;DHT22;26951;47.338;9.196;2023-05-10T03:09:00;11.10;79.10
41220;DHT22;26951;47.338;9.196;2023-05-10T03:14:57;11.10;79.00
41220;DHT22;26951;47.338;9.196;2023-05-10T03:18:06;11.10;79.00
41220;DHT22;26951;47.338;9.196;2023-05-10T03:20:57;11.10;78.50
41220;DHT22;26951;47.338;9.196;2023-05-10T03:23:59;11.10;79.20
41220;DHT22;26951;47.338;9.196;2023-05-10T03:26:44;11.10;79.90
41220;DHT22;26951;47.338;9.196;2023-05-10T03:29:29;11.10;80.00
41220;DHT22;26951;47.338;9.196;2023-05-10T03:32:14;11.10;79.30
41220;DHT22;26951;47.338;9.196;2023-05-10T03:34:58;11.10;78.90
41220;DHT22;26951;47.338;9.196;2023-05-10T03:37:42;11.10;79.40
41220;DHT22;26951;47.338;9.196;2023-05-10T03:40:27;11.10;79.80
41220;DHT22;26951;47.338;9.196;2023-05-10T03:43:15;11.00;79.90
41220;DHT22;26951;47.338;9.196;2023-05-10T03:46:02;11.10;79.90
41220;DHT22;26951;47.338;9.196;2023-05-10T03:48:47;11.10;79.60
41220;DHT22;26951;47.338;9.196;2023-05-10T03:51:31;11.00;79.60
41220;DHT22;26951;47.338;9.196;2023-05-10T03:54:15;11.00;80.10
41220;DHT22;26951;47.338;9.196;2023-05-10T03:56:59;11.00;80.30
41220;DHT22;26951;47.338;9.196;2023-05-10T03:59:44;11.00;81.00
41220;DHT22;26951;47.338;9.196;2023-05-10T04:02:29;11.00;80.60
41220;DHT22;26951;47.338;9.196;2023-05-10T04:05:14;11.00;80.00
41220;DHT22;26951;47.338;9.196;2023-05-10T04:07:58;11.00;80.30
41220;DHT22;26951;47.338;9.196;2023-05-10T04:10:42;11.00;80.60
41220;DHT22;26951;47.338;9.196;2023-05-10T04:13:27;11.00;80.30
41220;DHT22;26951;47.338;9.196;2023-05-10T04:16:11;11.00;81.20
41220;DHT22;26951;47.338;9.196;2023-05-10T04:18:55;11.00;80.30
41220;DHT22;26951;47.338;9.196;2023-05-10T04:21:39;11.00;79.80
41220;DHT22;26951;47.338;9.196;2023-05-10T04:24:24;11.00;79.70
41220;DHT22;26951;47.338;9.196;2023-05-10T04:27:07;11.00;79.80
41220;DHT22;26951;47.338;9.196;2023-05-10T04:29:52;11.00;79.60
41220;DHT22;26951;47.338;9.196;2023-05-10T04:32:36;11.00;79.10
41220;DHT22;26951;47.338;9.196;2023-05-10T04:35:20;11.00;78.80
41220;DHT22;26951;47.338;9.196;2023-05-10T04:38:05;11.00;79.50
41220;DHT22;26951;47.338;9.196;2023-05-10T04:40:49;11.00;79.40
41220;DHT22;26951;47.338;9.196;2023-05-10T04:43:34;11.00;79.80
41220;DHT22;26951;47.338;9.196;2023-05-10T04:46:18;11.00;79.60
41220;DHT22;26951;47.338;9.196;2023-05-10T04:49:02;11.00;80.70
41220;DHT22;26951;47.338;9.196;2023-05-10T04:51:46;11.00;80.70
41220;DHT22;26951;47.338;9.196;2023-05-10T04:54:30;11.00;81.10
41220;DHT22;26951;47.338;9.196;2023-05-10T04:57:14;11.00;80.80
41220;DHT22;26951;47.338;9.196;2023-05-10T04:59:59;11.00;78.30
41220;DHT22;26951;47.338;9.196;2023-05-10T05:02:44;11.00;78.70
41220;DHT22;26951;47.338;9.196;2023-05-10T05:05:29;11.00;77.20
41220;DHT22;26951;47.338;9.196;2023-05-10T05:08:13;10.90;78.40
41220;DHT22;26951;47.338;9.196;2023-05-10T05:10:57;10.90;78.90
41220;DHT22;26951;47.338;9.196;2023-05-10T05:13:43;10.90;80.10
41220;DHT22;26951;47.338;9.196;2023-05-10T05:16:30;10.90;79.60
41220;DHT22;26951;47.338;9.196;2023-05-10T05:19:14;10.90;79.50
41220;DHT22;26951;47.338;9.196;2023-05-10T05:21:59;10.90;79.80
41220;DHT22;26951;47.338;9.196;2023-05-10T05:24:43;10.90;80.10
41220;DHT22;26951;47.338;9.196;2023-05-10T05:27:28;10.90;80.20
41220;DHT22;26951;47.338;9.196;2023-05-10T05:30:13;10.90;80.90
41220;DHT22;26951;47.338;9.196;2023-05-10T05:32:57;11.00;82.20
41220;DHT22;26951;47.338;9.196;2023-05-10T05:35:41;10.90;82.90
41220;DHT22;26951;47.338;9.196;2023-05-10T05:38:28;11.00;82.90
41220;DHT22;26951;47.338;9.196;2023-05-10T05:41:12;11.00;83.10
41220;DHT22;26951;47.338;9.196;2023-05-10T05:43:56;11.00;83.30
41220;DHT22;26951;47.338;9.196;2023-05-10T05:46:40;11.00;83.90
41220;DHT22;26951;47.338;9.196;2023-05-10T05:49:24;11.00;84.00
41220;DHT22;26951;47.338;9.196;2023-05-10T05:52:09;11.00;81.50
41220;DHT22;26951;47.338;9.196;2023-05-10T05:54:53;10.90;78.00
41220;DHT22;26951;47.338;9.196;2023-05-10T05:57:37;10.90;76.70
41220;DHT22;26951;47.338;9.196;2023-05-10T06:00:21;10.80;76.50
41220;DHT22;26951;47.338;9.196;2023-05-10T06:03:06;10.80;76.30
41220;DHT22;26951;47.338;9.196;2023-05-10T06:05:50;10.70;73.90
41220;DHT22;26951;47.338;9.196;2023-05-10T06:08:34;10.70;75.40
41220;DHT22;26951;47.338;9.196;2023-05-10T06:11:19;10.60;76.30
41220;DHT22;26951;47.338;9.196;2023-05-10T06:14:04;10.70;77.50
41220;DHT22;26951;47.338;9.196;2023-05-10T06:16:50;10.70;78.30
41220;DHT22;26951;47.338;9.196;2023-05-10T06:19:34;10.70;80.00
41220;DHT22;26951;47.338;9.196;2023-05-10T06:22:20;10.70;80.30
41220;DHT22;26951;47.338;9.196;2023-05-10T06:25:06;10.80;81.10
41220;DHT22;26951;47.338;9.196;2023-05-10T06:27:50;10.80;81.40
41220;DHT22;26951;47.338;9.196;2023-05-10T06:30:39;10.80;81.80
41220;DHT22;26951;47.338;9.196;2023-05-10T06:33:23;10.80;81.50
41220;DHT22;26951;47.338;9.196;2023-05-10T06:36:07;10.80;80.70
41220;DHT22;26951;47.338;9.196;2023-05-10T06:38:51;10.70;78.50
41220;DHT22;26951;47.338;9.196;2023-05-10T06:41:36;10.60;78.50
41220;DHT22;26951;47.338;9.196;2023-05-10T06:44:20;10.60;79.00
41220;DHT22;26951;47.338;9.196;2023-05-10T06:47:03;10.50;78.30
41220;DHT22;26951;47.338;9.196;2023-05-10T06:49:48;10.50;78.40
41220;DHT22;26951;47.338;9.196;2023-05-10T06:52:32;10.40;78.00
41220;DHT22;26951;47.338;9.196;2023-05-10T06:55:16;10.40;78.90
41220;DHT22;26951;47.338;9.196;2023-05-10T06:58:01;10.40;78.90
41220;DHT22;26951;47.338;9.196;2023-05-10T07:00:46;10.40;78.90
41220;DHT22;26951;47.338;9.196;2023-05-10T07:03:31;10.30;78.40
41220;DHT22;26951;47.338;9.196;2023-05-10T07:06:15;10.30;79.10
41220;DHT22;26951;47.338;9.196;2023-05-10T07:09:00;10.30;79.30
41220;DHT22;26951;47.338;9.196;2023-05-10T07:11:44;10.30;79.10
41220;DHT22;26951;47.338;9.196;2023-05-10T07:14:28;10.30;78.70
41220;DHT22;26951;47.338;9.196;2023-05-10T07:17:12;10.30;79.30
41220;DHT22;26951;47.338;9.196;2023-05-10T07:19:57;10.30;78.90
41220;DHT22;26951;47.338;9.196;2023-05-10T07:22:41;10.40;79.20
41220;DHT22;26951;47.338;9.196;2023-05-10T07:25:25;10.40;78.50
41220;DHT22;26951;47.338;9.196;2023-05-10T07:28:10;10.40;79.20
41220;DHT22;26951;47.338;9.196;2023-05-10T07:30:54;10.50;78.60
41220;DHT22;26951;47.338;9.196;2023-05-10T07:33:39;10.50;78.40
41220;DHT22;26951;47.338;9.196;2023-05-10T07:36:23;10.50;78.60
41220;DHT22;26951;47.338;9.196;2023-05-10T07:39:08;10.50;77.70
41220;DHT22;26951;47.338;9.196;2023-05-10T07:41:52;10.50;77.60
41220;DHT22;26951;47.338;9.196;2023-05-10T07:44:36;10.50;77.20
41220;DHT22;26951;47.338;9.196;2023-05-10T07:47:20;10.50;78.00
41220;DHT22;26951;47.338;9.196;2023-05-10T07:50:05;10.50;79.20
41220;DHT22;26951;47.338;9.196;2023-05-10T07:52:49;10.50;80.00
41220;DHT22;26951;47.338;9.196;2023-05-10T07:55:33;10.50;80.20
41220;DHT22;26951;47.338;9.196;2023-05-10T07:58:17;10.50;77.70
41220;DHT22;26951;47.338;9.196;2023-05-10T08:01:01;10.50;77.10
41220;DHT22;26951;47.338;9.196;2023-05-10T08:03:46;10.50;78.00
41220;DHT22;26951;47.338;9.196;2023-05-10T08:06:30;10.50;78.20
41220;DHT22;26951;47.338;9.196;2023-05-10T08:09:14;10.50;78.40
41220;DHT22;26951;47.338;9.196;2023-05-10T08:11:58;10.60;78.70
41220;DHT22;26951;47.338;9.196;2023-05-10T08:14:43;10.50;77.10
41220;DHT22;26951;47.338;9.196;2023-05-10T08:17:28;10.50;77.00
41220;DHT22;26951;47.338;9.196;2023-05-10T08:20:12;10.50;76.40
41220;DHT22;26951;47.338;9.196;2023-05-10T08:22:57;10.50;77.30
41220;DHT22;26951;47.338;9.196;2023-05-10T08:25:41;10.50;76.80
41220;DHT22;26951;47.338;9.196;2023-05-10T08:28:25;10.50;77.70
41220;DHT22;26951;47.338;9.196;2023-05-10T08:31:09;10.50;78.10
41220;DHT22;26951;47.338;9.196;2023-05-10T08:33:53;10.50;79.00
41220;DHT22;26951;47.338;9.196;2023-05-10T08:36:37;10.50;78.80
41220;DHT22;26951;47.338;9.196;2023-05-10T08:39:21;10.60;79.10
41220;DHT22;26951;47.338;9.196;2023-05-10T08:42:07;10.60;79.70
41220;DHT22;26951;47.338;9.196;2023-05-10T08:44:53;10.60;80.50
41220;DHT22;26951;47.338;9.196;2023-05-10T08:47:39;10.60;80.70
41220;DHT22;26951;47.338;9.196;2023-05-10T08:50:23;10.70;81.70
41220;DHT22;26951;47.338;9.196;2023-05-10T08:53:11;10.70;82.70
41220;DHT22;26951;47.338;9.196;2023-05-10T08:55:55;10.80;82.60
41220;DHT22;26951;47.338;9.196;2023-05-10T08:58:39;10.80;82.60
41220;DHT22;26951;47.338;9.196;2023-05-10T09:01:24;10.90;82.60
41220;DHT22;26951;47.338;9.196;2023-05-10T09:04:09;10.90;82.20
41220;DHT22;26951;47.338;9.196;2023-05-10T09:06:54;11.00;82.70
41220;DHT22;26951;47.338;9.196;2023-05-10T09:09:39;10.90;82.40
41220;DHT22;26951;47.338;9.196;2023-05-10T09:12:23;11.00;82.80
41220;DHT22;26951;47.338;9.196;2023-05-10T09:15:09;11.00;82.40
41220;DHT22;26951;47.338;9.196;2023-05-10T09:17:54;11.10;83.40
41220;DHT22;26951;47.338;9.196;2023-05-10T09:20:38;11.10;82.90
41220;DHT22;26951;47.338;9.196;2023-05-10T09:23:23;11.10;81.70
41220;DHT22;26951;47.338;9.196;2023-05-10T09:26:13;11.10;78.70
41220;DHT22;26951;47.338;9.196;2023-05-10T09:28:59;11.20;77.50
41220;DHT22;26951;47.338;9.196;2023-05-10T09:31:46;11.20;73.40
41220;DHT22;26951;47.338;9.196;2023-05-10T09:34:32;11.10;74.40
41220;DHT22;26951;47.338;9.196;2023-05-10T09:37:29;11.10;72.90
41220;DHT22;26951;47.338;9.196;2023-05-10T09:40:19;11.10;74.90
41220;DHT22;26951;47.338;9.196;2023-05-10T09:43:07;11.00;75.90
41220;DHT22;26951;47.338;9.196;2023-05-10T09:45:51;11.10;76.00
41220;DHT22;26951;47.338;9.196;2023-05-10T09:48:44;11.00;75.60
41220;DHT22;26951;47.338;9.196;2023-05-10T09:51:28;11.00;74.80
41220;DHT22;26951;47.338;9.196;2023-05-10T09:54:15;11.00;75.20
41220;DHT22;26951;47.338;9.196;2023-05-10T09:57:00;11.10;76.40
41220;DHT22;26951;47.338;9.196;2023-05-10T09:59:44;11.10;75.50
41220;DHT22;26951;47.338;9.196;2023-05-10T10:02:28;11.10;74.80
41220;DHT22;26951;47.338;9.196;2023-05-10T10:05:13;11.10;74.00
41220;DHT22;26951;47.338;9.196;2023-05-10T10:07:58;11.10;75.40
41220;DHT22;26951;47.338;9.196;2023-05-10T10:10:43;11.20;76.60
41220;DHT22;26951;47.338;9.196;2023-05-10T10:13:30;11.30;75.90
41220;DHT22;26951;47.338;9.196;2023-05-10T10:16:15;11.30;75.60
41220;DHT22;26951;47.338;9.196;2023-05-10T10:19:00;11.40;77.10
41220;DHT22;26951;47.338;9.196;2023-05-10T10:21:45;11.40;76.40
41220;DHT22;26951;47.338;9.196;2023-05-10T10:24:29;11.40;75.50
41220;DHT22;26951;47.338;9.196;2023-05-10T10:27:24;11.50;75.50
41220;DHT22;26951;47.338;9.196;2023-05-10T10:36:22;11.70;78.00
41220;DHT22;26951;47.338;9.196;2023-05-10T10:39:09;11.80;75.30
41220;DHT22;26951;47.338;9.196;2023-05-10T10:41:56;11.90;75.40
41220;DHT22;26951;47.338;9.196;2023-05-10T10:44:40;12.00;75.40
41220;DHT22;26951;47.338;9.196;2023-05-10T10:47:28;12.00;74.80
41220;DHT22;26951;47.338;9.196;2023-05-10T10:50:15;12.00;72.90
41220;DHT22;26951;47.338;9.196;2023-05-10T10:53:10;11.90;72.50
41220;DHT22;26951;47.338;9.196;2023-05-10T10:56:15;11.80;71.60
41220;DHT22;26951;47.338;9.196;2023-05-10T10:58:59;11.80;71.70
41220;DHT22;26951;47.338;9.196;2023-05-10T11:01:43;11.70;71.00
41220;DHT22;26951;47.338;9.196;2023-05-10T11:04:28;11.70;72.10
41220;DHT22;26951;47.338;9.196;2023-05-10T11:07:19;11.80;72.90
41220;DHT22;26951;47.338;9.196;2023-05-10T11:10:07;11.80;73.60
41220;DHT22;26951;47.338;9.196;2023-05-10T11:13:05;11.80;73.20
41220;DHT22;26951;47.338;9.196;2023-05-10T11:15:49;11.80;72.90
41220;DHT22;26951;47.338;9.196;2023-05-10T11:18:37;11.80;72.70
41220;DHT22;26951;47.338;9.196;2023-05-10T11:21:21;11.90;72.70
41220;DHT22;26951;47.338;9.196;2023-05-10T11:24:13;11.90;70.40
41220;DHT22;26951;47.338;9.196;2023-05-10T11:26:57;11.80;70.10
41220;DHT22;26951;47.338;9.196;2023-05-10T11:29:43;11.80;70.60
41220;DHT22;26951;47.338;9.196;2023-05-10T11:32:27;11.80;71.00
41220;DHT22;26951;47.338;9.196;2023-05-10T11:35:12;11.80;71.90
41220;DHT22;26951;47.338;9.196;2023-05-10T11:37:56;11.80;71.70
41220;DHT22;26951;47.338;9.196;2023-05-10T11:40:40;11.80;71.20
41220;DHT22;26951;47.338;9.196;2023-05-10T11:43:27;11.80;71.70
41220;DHT22;26951;47.338;9.196;2023-05-10T11:46:14;11.80;71.50
41220;DHT22;26951;47.338;9.196;2023-05-10T11:49:02;11.70;71.00
41220;DHT22;26951;47.338;9.196;2023-05-10T11:51:47;11.70;70.90
41220;DHT22;26951;47.338;9.196;2023-05-10T11:54:31;11.70;71.90
41220;DHT22;26951;47.338;9.196;2023-05-10T11:57:26;11.70;72.60
41220;DHT22;26951;47.338;9.196;2023-05-10T12:00:10;11.70;73.00
41220;DHT22;26951;47.338;9.196;2023-05-10T12:02:55;11.60;72.50
41220;DHT22;26951;47.338;9.196;2023-05-10T12:05:39;11.50;72.10
41220;DHT22;26951;47.338;9.196;2023-05-10T12:08:27;11.50;73.10
41220;DHT22;26951;47.338;9.196;2023-05-10T12:11:12;11.50;74.30
41220;DHT22;26951;47.338;9.196;2023-05-10T12:14:04;11.50;74.80
41220;DHT22;26951;47.338;9.196;2023-05-10T12:16:49;11.50;74.60
41220;DHT22;26951;47.338;9.196;2023-05-10T12:19:40;11.50;74.50
41220;DHT22;26951;47.338;9.196;2023-05-10T12:22:24;11.50;74.10
41220;DHT22;26951;47.338;9.196;2023-05-10T12:25:09;11.50;73.40
41220;DHT22;26951;47.338;9.196;2023-05-10T12:27:56;11.40;73.80
41220;DHT22;26951;47.338;9.196;2023-05-10T12:30:40;11.40;73.10
41220;DHT22;26951;47.338;9.196;2023-05-10T12:33:24;11.40;73.70
41220;DHT22;26951;47.338;9.196;2023-05-10T12:36:09;11.40;73.50
41220;DHT22;26951;47.338;9.196;2023-05-10T12:39:02;11.50;73.70
41220;DHT22;26951;47.338;9.196;2023-05-10T12:41:46;11.50;73.80
41220;DHT22;26951;47.338;9.196;2023-05-10T12:44:30;11.50;73.60
41220;DHT22;26951;47.338;9.196;2023-05-10T12:47:14;11.60;74.50
41220;DHT22;26951;47.338;9.196;2023-05-10T12:49:59;11.60;74.10
41220;DHT22;26951;47.338;9.196;2023-05-10T12:52:44;11.60;72.60
41220;DHT22;26951;47.338;9.196;2023-05-10T12:55:29;11.70;70.10
41220;DHT22;26951;47.338;9.196;2023-05-10T12:58:13;11.60;70.90
41220;DHT22;26951;47.338;9.196;2023-05-10T13:00:58;11.60;71.50
41220;DHT22;26951;47.338;9.196;2023-05-10T13:03:42;11.60;71.20
41220;DHT22;26951;47.338;9.196;2023-05-10T13:06:27;11.60;71.70
41220;DHT22;26951;47.338;9.196;2023-05-10T13:09:11;11.50;71.40
41220;DHT22;26951;47.338;9.196;2023-05-10T13:11:56;11.50;71.40
41220;DHT22;26951;47.338;9.196;2023-05-10T13:14:40;11.50;71.80
41220;DHT22;26951;47.338;9.196;2023-05-10T13:17:25;11.60;73.10
41220;DHT22;26951;47.338;9.196;2023-05-10T13:20:10;11.60;74.30
41220;DHT22;26951;47.338;9.196;2023-05-10T13:22:54;11.70;72.90
41220;DHT22;26951;47.338;9.196;2023-05-10T13:25:38;11.70;73.60
41220;DHT22;26951;47.338;9.196;2023-05-10T13:28:22;11.80;72.60
41220;DHT22;26951;47.338;9.196;2023-05-10T13:31:07;11.80;73.60
41220;DHT22;26951;47.338;9.196;2023-05-10T13:33:51;11.80;74.00
41220;DHT22;26951;47.338;9.196;2023-05-10T13:36:35;11.90;74.30
41220;DHT22;26951;47.338;9.196;2023-05-10T13:39:20;12.00;74.40
41220;DHT22;26951;47.338;9.196;2023-05-10T13:42:04;12.00;73.90
41220;DHT22;26951;47.338;9.196;2023-05-10T13:44:52;12.00;71.00
41220;DHT22;26951;47.338;9.196;2023-05-10T13:47:36;12.00;73.00
41220;DHT22;26951;47.338;9.196;2023-05-10T13:50:20;12.10;73.20
41220;DHT22;26951;47.338;9.196;2023-05-10T13:53:04;12.10;73.20
41220;DHT22;26951;47.338;9.196;2023-05-10T13:55:49;12.20;72.30
41220;DHT22;26951;47.338;9.196;2023-05-10T13:58:33;12.20;73.20
41220;DHT22;26951;47.338;9.196;2023-05-10T14:01:17;12.30;73.20
41220;DHT22;26951;47.338;9.196;2023-05-10T14:04:01;12.30;72.30
41220;DHT22;26951;47.338;9.196;2023-05-10T14:06:45;12.30;72.50
41220;DHT22;26951;47.338;9.196;2023-05-10T14:09:29;12.30;71.40
41220;DHT22;26951;47.338;9.196;2023-05-10T14:12:14;12.30;71.30
41220;DHT22;26951;47.338;9.196;2023-05-10T14:14:58;12.40;70.00
41220;DHT22;26951;47.338;9.196;2023-05-10T14:17:42;12.40;70.30
41220;DHT22;26951;47.338;9.196;2023-05-10T14:20:26;12.30;68.10
41220;DHT22;26951;47.338;9.196;2023-05-10T14:23:11;12.30;69.40
41220;DHT22;26951;47.338;9.196;2023-05-10T14:25:56;12.20;71.20
41220;DHT22;26951;47.338;9.196;2023-05-10T14:28:40;12.30;69.00
41220;DHT22;26951;47.338;9.196;2023-05-10T14:31:24;12.20;69.60
41220;DHT22;26951;47.338;9.196;2023-05-10T14:34:09;12.20;70.40
41220;DHT22;26951;47.338;9.196;2023-05-10T14:36:54;12.20;69.20
41220;DHT22;26951;47.338;9.196;2023-05-10T14:39:39;12.20;70.50
41220;DHT22;26951;47.338;9.196;2023-05-10T14:42:23;12.20;70.10
41220;DHT22;26951;47.338;9.196;2023-05-10T14:45:07;12.20;69.20
41220;DHT22;26951;47.338;9.196;2023-05-10T14:47:52;12.20;68.70
41220;DHT22;26951;47.338;9.196;2023-05-10T14:50:36;12.20;69.30
41220;DHT22;26951;47.338;9.196;2023-05-10T14:53:21;12.20;70.70
41220;DHT22;26951;47.338;9.196;2023-05-10T14:56:05;12.20;68.70
41220;DHT22;26951;47.338;9.196;2023-05-10T14:58:50;12.10;68.40
41220;DHT22;26951;47.338;9.196;2023-05-10T15:01:34;12.00;67.80
41220;DHT22;26951;47.338;9.196;2023-05-10T15:04:20;12.00;68.00
41220;DHT22;26951;47.338;9.196;2023-05-10T15:07:05;12.00;68.40
41220;DHT22;26951;47.338;9.196;2023-05-10T15:09:52;12.00;68.40
41220;DHT22;26951;47.338;9.196;2023-05-10T15:12:37;11.90;68.70
41220;DHT22;26951;47.338;9.196;2023-05-10T15:15:21;12.00;69.70
41220;DHT22;26951;47.338;9.196;2023-05-10T15:18:05;12.00;69.20
41220;DHT22;26951;47.338;9.196;2023-05-10T15:20:49;12.00;69.30
41220;DHT22;26951;47.338;9.196;2023-05-10T15:23:34;12.00;67.50
41220;DHT22;26951;47.338;9.196;2023-05-10T15:26:18;12.00;68.80
41220;DHT22;26951;47.338;9.196;2023-05-10T15:29:02;12.00;68.70
41220;DHT22;26951;47.338;9.196;2023-05-10T15:31:50;12.00;67.10
41220;DHT22;26951;47.338;9.196;2023-05-10T15:34:34;11.90;67.40
41220;DHT22;26951;47.338;9.196;2023-05-10T15:37:18;11.90;66.40
41220;DHT22;26951;47.338;9.196;2023-05-10T15:40:02;11.90;66.60
41220;DHT22;26951;47.338;9.196;2023-05-10T15:42:47;11.90;68.10
41220;DHT22;26951;47.338;9.196;2023-05-10T15:45:31;11.80;67.90
41220;DHT22;26951;47.338;9.196;2023-05-10T15:48:16;11.80;68.40
41220;DHT22;26951;47.338;9.196;2023-05-10T15:51:00;11.90;69.40
41220;DHT22;26951;47.338;9.196;2023-05-10T15:53:44;11.90;69.60
41220;DHT22;26951;47.338;9.196;2023-05-10T15:56:29;11.90;70.10
41220;DHT22;26951;47.338;9.196;2023-05-10T15:59:13;11.90;69.50
41220;DHT22;26951;47.338;9.196;2023-05-10T16:01:58;11.90;69.70
41220;DHT22;26951;47.338;9.196;2023-05-10T16:04:42;11.90;70.30
41220;DHT22;26951;47.338;9.196;2023-05-10T16:07:27;12.00;70.00
41220;DHT22;26951;47.338;9.196;2023-05-10T16:10:12;12.00;70.00
41220;DHT22;26951;47.338;9.196;2023-05-10T16:12:56;12.00;69.70
41220;DHT22;26951;47.338;9.196;2023-05-10T16:15:41;12.10;69.30
41220;DHT22;26951;47.338;9.196;2023-05-10T16:18:25;12.00;69.80
41220;DHT22;26951;47.338;9.196;2023-05-10T16:21:09;12.00;69.80
41220;DHT22;26951;47.338;9.196;2023-05-10T16:23:54;12.00;68.90
41220;DHT22;26951;47.338;9.196;2023-05-10T16:26:38;12.10;68.70
41220;DHT22;26951;47.338;9.196;2023-05-10T16:29:23;12.00;67.70
41220;DHT22;26951;47.338;9.196;2023-05-10T16:32:07;12.00;67.00
41220;DHT22;26951;47.338;9.196;2023-05-10T16:34:51;12.00;66.00
41220;DHT22;26951;47.338;9.196;2023-05-10T16:37:36;12.00;66.30
41220;DHT22;26951;47.338;9.196;2023-05-10T16:40:20;12.00;66.30
41220;DHT22;26951;47.338;9.196;2023-05-10T16:43:04;12.00;67.30
41220;DHT22;26951;47.338;9.196;2023-05-10T16:45:48;12.10;68.70
41220;DHT22;26951;47.338;9.196;2023-05-10T16:48:32;12.10;68.70
41220;DHT22;26951;47.338;9.196;2023-05-10T16:51:17;12.10;69.80
41220;DHT22;26951;47.338;9.196;2023-05-10T16:54:01;12.10;69.90
41220;DHT22;26951;47.338;9.196;2023-05-10T16:56:45;12.10;70.30
41220;DHT22;26951;47.338;9.196;2023-05-10T16:59:29;12.10;70.20
41220;DHT22;26951;47.338;9.196;2023-05-10T17:02:14;12.10;69.40
41220;DHT22;26951;47.338;9.196;2023-05-10T17:04:58;12.00;67.40
41220;DHT22;26951;47.338;9.196;2023-05-10T17:07:42;12.00;67.10
41220;DHT22;26951;47.338;9.196;2023-05-10T17:10:26;12.00;66.50
41220;DHT22;26951;47.338;9.196;2023-05-10T17:13:10;11.90;66.40
41220;DHT22;26951;47.338;9.196;2023-05-10T17:15:55;11.90;67.00
41220;DHT22;26951;47.338;9.196;2023-05-10T17:18:39;11.80;66.00
41220;DHT22;26951;47.338;9.196;2023-05-10T17:21:25;11.70;64.00
41220;DHT22;26951;47.338;9.196;2023-05-10T17:24:09;11.60;62.40
41220;DHT22;26951;47.338;9.196;2023-05-10T17:26:54;11.40;61.00
41220;DHT22;26951;47.338;9.196;2023-05-10T17:29:40;11.20;61.40
41220;DHT22;26951;47.338;9.196;2023-05-10T17:32:24;11.10;62.30
41220;DHT22;26951;47.338;9.196;2023-05-10T17:35:08;11.00;62.10
41220;DHT22;26951;47.338;9.196;2023-05-10T17:37:53;10.90;62.40
41220;DHT22;26951;47.338;9.196;2023-05-10T17:40:39;10.90;62.70
41220;DHT22;26951;47.338;9.196;2023-05-10T17:43:23;10.80;64.10